createdAt,value
2022-10-26T00:01:14.357Z,0.80
2022-10-26T00:03:43.127Z,0.70
2022-10-26T00:06:11.585Z,0.80
2022-10-26T00:08:38.946Z,0.90
2022-10-26T00:11:09.485Z,0.90
2022-10-26T00:13:37.539Z,0.80
2022-10-26T00:16:13.910Z,0.70
2022-10-26T00:18:41.354Z,0.80
2022-10-26T00:21:10.448Z,0.70
2022-10-26T00:23:38.086Z,1.10
2022-10-26T00:26:05.965Z,0.90
2022-10-26T00:28:33.310Z,0.80
2022-10-26T00:31:06.132Z,0.90
2022-10-26T00:33:33.606Z,0.70
2022-10-26T00:36:01.084Z,0.70
2022-10-26T00:38:28.644Z,0.70
2022-10-26T00:43:28.055Z,1.73
2022-10-26T00:45:57.245Z,0.67
2022-10-26T00:48:35.382Z,0.90
2022-10-26T00:51:21.003Z,0.60
2022-10-26T00:53:48.693Z,0.60
2022-10-26T00:56:16.407Z,0.80
2022-10-26T00:58:44.313Z,0.77
2022-10-26T01:01:11.662Z,0.70
2022-10-26T01:03:39.674Z,0.70
2022-10-26T01:06:07.976Z,0.90
2022-10-26T01:08:35.394Z,0.60
2022-10-26T01:11:03.950Z,0.83
2022-10-26T01:13:34.254Z,0.90
2022-10-26T01:16:20.463Z,0.70
2022-10-26T01:18:53.624Z,0.90
2022-10-26T01:21:37.250Z,0.70
2022-10-26T01:24:10.496Z,0.70
2022-10-26T01:26:40.379Z,0.93
2022-10-26T01:29:29.023Z,0.70
2022-10-26T01:32:12.858Z,0.50
2022-10-26T01:35:09.362Z,1.33
2022-10-26T01:37:43.427Z,0.87
2022-10-26T01:40:16.112Z,0.67
2022-10-26T01:42:48.310Z,0.70
2022-10-26T01:45:16.868Z,0.80
2022-10-26T01:47:46.038Z,0.80
2022-10-26T01:50:13.887Z,0.90
2022-10-26T01:52:41.258Z,0.60
2022-10-26T01:55:41.406Z,0.70
2022-10-26T01:58:42.832Z,0.60
2022-10-26T02:01:34.116Z,1.03
2022-10-26T02:04:20.878Z,0.73
2022-10-26T02:07:12.375Z,0.70
2022-10-26T02:09:42.500Z,0.63
2022-10-26T02:12:23.043Z,0.77
2022-10-26T02:14:57.936Z,0.70
2022-10-26T02:17:33.757Z,3.00
2022-10-26T02:20:05.610Z,0.50
2022-10-26T02:22:38.244Z,0.60
2022-10-26T02:25:09.897Z,0.70
2022-10-26T02:27:42.204Z,0.90
2022-10-26T02:30:11.168Z,0.90
2022-10-26T02:32:42.245Z,0.80
2022-10-26T02:35:11.657Z,0.80
2022-10-26T02:37:40.863Z,0.73
2022-10-26T02:40:13.442Z,1.00
2022-10-26T02:42:45.337Z,0.70
2022-10-26T02:45:18.593Z,0.80
2022-10-26T02:47:45.850Z,0.70
2022-10-26T02:50:13.571Z,0.90
2022-10-26T02:52:53.468Z,0.70
2022-10-26T02:55:25.732Z,1.47
2022-10-26T02:57:57.471Z,0.77
2022-10-26T03:00:25.078Z,0.77
2022-10-26T03:02:58.090Z,0.70
2022-10-26T03:05:32.559Z,0.60
2022-10-26T03:08:00.555Z,0.70
2022-10-26T03:10:27.754Z,0.70
2022-10-26T03:12:55.214Z,0.77
2022-10-26T03:15:22.390Z,0.70
2022-10-26T03:17:49.580Z,0.63
2022-10-26T03:20:17.042Z,0.70
2022-10-26T03:22:44.205Z,0.67
2022-10-26T03:25:11.487Z,0.60
2022-10-26T03:27:38.987Z,1.00
2022-10-26T03:30:06.767Z,0.80
2022-10-26T03:32:34.123Z,0.70
2022-10-26T03:35:01.291Z,0.93
2022-10-26T03:37:29.290Z,0.87
2022-10-26T03:39:56.535Z,0.70
2022-10-26T03:42:23.644Z,0.73
2022-10-26T03:44:50.799Z,0.87
2022-10-26T03:47:49.246Z,0.80
2022-10-26T03:50:19.279Z,0.60
2022-10-26T03:52:48.232Z,0.60
2022-10-26T03:55:16.232Z,0.63
2022-10-26T03:57:44.648Z,0.70
2022-10-26T04:00:17.445Z,0.80
2022-10-26T04:02:51.910Z,0.87
2022-10-26T04:05:19.533Z,0.70
2022-10-26T04:07:56.582Z,0.70
2022-10-26T04:10:24.858Z,0.70
2022-10-26T04:12:52.507Z,0.70
2022-10-26T04:15:20.452Z,0.73
2022-10-26T04:17:48.367Z,0.73
2022-10-26T04:20:15.859Z,0.50
2022-10-26T04:22:43.018Z,0.50
2022-10-26T04:25:11.421Z,0.60
2022-10-26T04:27:38.539Z,1.00
2022-10-26T04:30:09.942Z,0.60
2022-10-26T04:32:37.337Z,0.60
2022-10-26T04:35:04.823Z,0.70
2022-10-26T04:37:32.059Z,0.70
2022-10-26T04:39:59.279Z,0.60
2022-10-26T04:42:26.461Z,1.07
2022-10-26T04:44:53.575Z,0.83
2022-10-26T04:47:20.654Z,0.70
2022-10-26T04:49:47.957Z,0.97
2022-10-26T04:52:33.360Z,0.80
2022-10-26T04:55:00.921Z,0.63
2022-10-26T04:57:28.636Z,0.60
2022-10-26T04:59:55.931Z,0.97
2022-10-26T05:02:23.268Z,0.80
2022-10-26T05:04:50.721Z,0.90
2022-10-26T05:07:17.819Z,1.40
2022-10-26T05:09:45.175Z,1.03
2022-10-26T05:12:15.110Z,0.80
2022-10-26T05:14:42.351Z,0.80
2022-10-26T05:17:09.487Z,0.77
2022-10-26T05:19:36.684Z,1.30
2022-10-26T05:22:06.595Z,0.93
2022-10-26T05:24:33.748Z,0.90
2022-10-26T05:27:03.837Z,1.80
2022-10-26T05:29:30.983Z,1.27
2022-10-26T05:32:01.003Z,0.90
2022-10-26T05:34:28.163Z,1.20
2022-10-26T05:36:55.272Z,1.60
2022-10-26T05:39:22.744Z,1.40
2022-10-26T05:41:52.919Z,1.40
2022-10-26T05:44:20.033Z,1.60
2022-10-26T05:46:47.522Z,1.53
2022-10-26T05:49:15.819Z,1.50
2022-10-26T05:51:43.002Z,1.70
2022-10-26T05:54:13.612Z,1.23
2022-10-26T05:56:41.945Z,0.90
2022-10-26T05:59:15.125Z,1.20
2022-10-26T06:02:00.885Z,1.40
2022-10-26T06:04:41.562Z,1.00
2022-10-26T06:07:14.338Z,1.10
2022-10-26T06:09:42.611Z,1.33
2022-10-26T06:12:12.637Z,1.30
2022-10-26T06:14:42.904Z,1.07
2022-10-26T06:17:31.918Z,1.60
2022-10-26T06:20:08.723Z,1.40
2022-10-26T06:22:50.408Z,1.57
2022-10-26T06:25:39.000Z,1.23
2022-10-26T06:28:27.712Z,1.20
2022-10-26T06:30:56.322Z,2.00
2022-10-26T06:33:29.324Z,2.20
2022-10-26T06:36:20.138Z,2.20
2022-10-26T06:38:49.690Z,2.50
2022-10-26T06:41:19.381Z,2.03
2022-10-26T06:43:46.915Z,2.20
2022-10-26T06:46:39.080Z,1.30
2022-10-26T06:49:12.196Z,1.20
2022-10-26T06:52:08.510Z,1.00
2022-10-26T06:54:53.235Z,1.47
2022-10-26T06:57:23.027Z,1.53
2022-10-26T06:59:53.771Z,2.00
2022-10-26T07:02:21.310Z,2.10
2022-10-26T07:04:48.763Z,1.60
2022-10-26T07:07:21.916Z,2.03
2022-10-26T07:09:49.437Z,1.93
2022-10-26T07:12:16.849Z,2.93
2022-10-26T07:14:44.819Z,2.23
2022-10-26T07:17:12.406Z,1.90
2022-10-26T07:19:40.616Z,1.70
2022-10-26T07:22:07.827Z,1.60
2022-10-26T07:24:34.963Z,1.10
2022-10-26T07:27:02.409Z,1.60
2022-10-26T07:29:29.720Z,2.07
2022-10-26T07:31:56.886Z,2.60
2022-10-26T07:34:24.323Z,2.57
2022-10-26T07:36:51.794Z,2.23
2022-10-26T07:39:19.009Z,2.13
2022-10-26T07:41:47.250Z,3.27
2022-10-26T07:44:17.339Z,2.40
2022-10-26T07:46:45.011Z,2.33
2022-10-26T07:49:12.973Z,3.27
2022-10-26T07:51:40.838Z,3.20
2022-10-26T07:54:10.752Z,3.17
2022-10-26T07:56:37.974Z,2.80
2022-10-26T07:59:05.182Z,2.70
2022-10-26T08:01:32.529Z,2.63
2022-10-26T08:03:59.894Z,1.93
2022-10-26T08:06:27.012Z,2.30
2022-10-26T08:08:54.217Z,1.90
2022-10-26T08:11:21.660Z,2.23
2022-10-26T08:13:53.216Z,1.53
2022-10-26T08:16:20.955Z,1.73
2022-10-26T08:18:50.266Z,1.40
2022-10-26T08:21:22.217Z,1.70
2022-10-26T08:24:02.833Z,1.90
2022-10-26T08:26:30.704Z,1.80
2022-10-26T08:28:57.869Z,1.77
2022-10-26T08:31:25.064Z,1.87
2022-10-26T08:33:52.198Z,1.57
2022-10-26T08:36:28.610Z,1.80
2022-10-26T08:38:55.901Z,1.50
2022-10-26T08:41:42.267Z,1.63
2022-10-26T08:44:21.413Z,1.93
2022-10-26T08:46:53.538Z,1.20
2022-10-26T08:49:25.350Z,1.13
2022-10-26T08:51:59.772Z,1.40
2022-10-26T08:54:50.852Z,2.53
2022-10-26T08:57:41.391Z,1.53
2022-10-26T09:00:15.235Z,1.50
2022-10-26T09:02:42.498Z,2.03
2022-10-26T09:05:18.726Z,3.00
2022-10-26T09:08:00.166Z,2.80
2022-10-26T09:11:08.485Z,2.20
2022-10-26T09:14:00.052Z,2.60
2022-10-26T09:17:04.998Z,1.90
2022-10-26T09:19:50.578Z,1.30
2022-10-26T09:22:37.972Z,1.70
2022-10-26T09:25:27.335Z,1.77
2022-10-26T09:28:01.199Z,1.50
2022-10-26T09:30:30.404Z,1.30
2022-10-26T09:33:08.938Z,1.50
2022-10-26T09:36:17.221Z,1.10
2022-10-26T09:39:03.187Z,1.13
2022-10-26T09:41:39.092Z,1.00
2022-10-26T09:44:09.082Z,1.10
2022-10-26T09:46:45.093Z,0.90
2022-10-26T09:49:15.304Z,1.17
2022-10-26T09:51:45.122Z,1.27
2022-10-26T09:54:18.269Z,1.00
2022-10-26T09:56:49.733Z,1.33
2022-10-26T09:59:21.328Z,1.30
2022-10-26T10:01:48.569Z,1.17
2022-10-26T10:04:26.017Z,1.23
2022-10-26T10:07:15.633Z,1.23
2022-10-26T10:09:42.850Z,1.33
2022-10-26T10:12:20.613Z,1.20
2022-10-26T10:14:59.095Z,1.50
2022-10-26T10:17:27.102Z,1.70
2022-10-26T10:19:54.777Z,1.30
2022-10-26T10:22:25.816Z,1.40
2022-10-26T10:24:57.073Z,2.17
2022-10-26T10:27:25.219Z,1.10
2022-10-26T10:30:01.362Z,1.30
2022-10-26T10:32:35.717Z,1.40
2022-10-26T10:35:24.014Z,2.00
2022-10-26T10:37:51.995Z,2.17
2022-10-26T10:40:25.576Z,1.47
2022-10-26T10:43:02.757Z,1.43
2022-10-26T10:45:31.291Z,1.83
2022-10-26T10:48:22.494Z,1.83
2022-10-26T10:50:59.478Z,3.00
2022-10-26T10:53:26.596Z,1.17
2022-10-26T10:56:04.447Z,1.57
2022-10-26T10:58:47.447Z,1.60
2022-10-26T11:01:20.915Z,1.20
2022-10-26T11:04:09.942Z,1.10
2022-10-26T11:06:40.782Z,1.20
2022-10-26T11:09:09.908Z,1.20
2022-10-26T11:11:46.076Z,1.30
2022-10-26T11:14:25.204Z,1.50
2022-10-26T11:17:26.072Z,1.40
2022-10-26T11:20:03.578Z,1.33
2022-10-26T11:22:40.615Z,1.30
2022-10-26T11:25:28.408Z,1.10
2022-10-26T11:28:00.830Z,1.00
2022-10-26T11:30:30.741Z,1.20
2022-10-26T11:33:03.619Z,1.40
2022-10-26T11:35:37.676Z,1.30
2022-10-26T11:38:27.960Z,0.90
2022-10-26T11:41:27.009Z,1.47
2022-10-26T11:44:03.567Z,1.23
2022-10-26T11:47:08.381Z,1.23
2022-10-26T11:49:42.603Z,1.10
2022-10-26T11:52:18.331Z,1.40
2022-10-26T11:54:53.355Z,1.57
2022-10-26T11:57:23.551Z,1.40
2022-10-26T12:00:03.935Z,1.70
2022-10-26T12:02:33.883Z,1.43
2022-10-26T12:05:08.691Z,1.40
2022-10-26T12:07:40.347Z,1.23
2022-10-26T12:10:24.606Z,1.23
2022-10-26T12:12:59.944Z,1.03
2022-10-26T12:16:03.627Z,1.20
2022-10-26T12:18:54.598Z,1.33
2022-10-26T12:21:29.161Z,1.07
2022-10-26T12:23:59.525Z,1.17
2022-10-26T12:26:26.654Z,1.33
2022-10-26T12:29:02.877Z,1.23
2022-10-26T12:31:33.620Z,0.83
2022-10-26T12:34:01.158Z,1.20
2022-10-26T12:36:56.054Z,1.67
2022-10-26T12:39:42.722Z,1.20
2022-10-26T12:42:28.850Z,1.30
2022-10-26T12:44:58.964Z,1.47
2022-10-26T12:47:29.180Z,1.20
2022-10-26T12:50:23.272Z,0.93
2022-10-26T12:52:57.356Z,1.20
2022-10-26T12:55:46.203Z,1.50
2022-10-26T12:58:41.580Z,1.80
2022-10-26T13:01:32.630Z,1.53
2022-10-26T13:04:15.295Z,2.70
2022-10-26T13:06:55.231Z,1.70
2022-10-26T13:09:27.683Z,2.20
2022-10-26T13:11:57.359Z,2.23
2022-10-26T13:14:35.090Z,1.50
2022-10-26T13:17:05.653Z,1.57
2022-10-26T13:19:45.026Z,1.40
2022-10-26T13:22:22.181Z,1.60
2022-10-26T13:24:54.346Z,1.77
2022-10-26T13:27:40.776Z,1.50
2022-10-26T13:30:34.747Z,1.73
2022-10-26T13:33:04.080Z,1.87
2022-10-26T13:35:31.965Z,2.50
2022-10-26T13:38:08.084Z,2.47
2022-10-26T13:40:38.274Z,4.27
2022-10-26T13:43:11.755Z,2.83
2022-10-26T13:45:50.685Z,1.90
2022-10-26T13:48:33.484Z,2.20
2022-10-26T13:51:05.367Z,2.07
2022-10-26T13:53:54.466Z,2.17
2022-10-26T13:56:22.003Z,2.07
2022-10-26T13:59:09.818Z,1.90
2022-10-26T14:01:37.152Z,1.80
2022-10-26T14:04:18.661Z,1.70
2022-10-26T14:06:51.682Z,1.53
2022-10-26T14:09:21.678Z,1.40
2022-10-26T14:12:01.913Z,2.20
2022-10-26T14:14:33.472Z,1.23
2022-10-26T14:17:01.572Z,1.47
2022-10-26T14:19:31.170Z,1.70
2022-10-26T14:21:59.032Z,1.97
2022-10-26T14:24:46.105Z,1.90
2022-10-26T14:27:18.317Z,1.77
2022-10-26T14:29:49.936Z,1.37
2022-10-26T14:32:36.758Z,2.07
2022-10-26T14:35:04.059Z,1.90
2022-10-26T14:37:31.316Z,2.03
2022-10-26T14:39:58.757Z,1.93
2022-10-26T14:42:39.784Z,2.03
2022-10-26T14:45:29.501Z,3.07
2022-10-26T14:47:57.556Z,3.90
2022-10-26T14:50:31.163Z,2.77
2022-10-26T14:53:02.478Z,3.43
2022-10-26T14:55:31.034Z,2.50
2022-10-26T14:58:16.786Z,2.90
2022-10-26T15:00:44.835Z,2.07
2022-10-26T15:03:17.414Z,1.83
2022-10-26T15:05:44.795Z,1.83
2022-10-26T15:09:00.407Z,2.00
2022-10-26T15:11:29.268Z,2.07
2022-10-26T15:13:58.150Z,2.60
2022-10-26T15:16:32.128Z,3.10
2022-10-26T15:19:09.766Z,3.20
2022-10-26T15:21:47.716Z,2.90
2022-10-26T15:24:24.822Z,3.40
2022-10-26T15:26:52.348Z,4.63
2022-10-26T15:29:44.980Z,4.00
2022-10-26T15:32:33.085Z,3.37
2022-10-26T15:35:28.871Z,3.50
2022-10-26T15:37:57.618Z,3.97
2022-10-26T15:43:00.191Z,4.40
2022-10-26T15:45:34.063Z,3.20
2022-10-26T15:48:18.399Z,2.60
2022-10-26T15:50:45.482Z,2.70
2022-10-26T15:53:19.439Z,3.10
2022-10-26T15:55:47.282Z,2.60
2022-10-26T15:58:15.589Z,2.57
2022-10-26T16:00:42.822Z,2.50
2022-10-26T16:03:15.324Z,3.40
2022-10-26T16:05:42.572Z,3.60
2022-10-26T16:08:17.766Z,4.40
2022-10-26T16:10:46.549Z,4.93
2022-10-26T16:13:15.141Z,3.40
2022-10-26T16:15:42.717Z,2.57
2022-10-26T16:18:09.902Z,2.70
2022-10-26T16:20:37.579Z,3.77
2022-10-26T16:23:07.579Z,2.50
2022-10-26T16:25:40.800Z,2.30
2022-10-26T16:28:09.554Z,2.90
2022-10-26T16:30:36.994Z,2.90
2022-10-26T16:33:04.187Z,2.73
2022-10-26T16:35:31.367Z,2.47
2022-10-26T16:37:58.475Z,2.47
2022-10-26T16:40:26.697Z,2.43
2022-10-26T16:42:53.897Z,2.23
2022-10-26T16:45:21.007Z,2.90
2022-10-26T16:47:48.441Z,5.47
2022-10-26T16:50:16.046Z,3.83
2022-10-26T16:52:43.223Z,3.13
2022-10-26T16:55:10.435Z,3.20
2022-10-26T16:57:37.773Z,2.00
2022-10-26T17:00:06.559Z,2.30
2022-10-26T17:02:33.840Z,2.10
2022-10-26T17:05:04.262Z,2.40
2022-10-26T17:07:34.325Z,2.47
2022-10-26T17:10:01.520Z,4.70
2022-10-26T17:12:28.713Z,5.60
2022-10-26T17:14:58.572Z,3.97
2022-10-26T17:17:25.879Z,3.63
2022-10-26T17:19:53.181Z,2.43
2022-10-26T17:22:20.290Z,2.67
2022-10-26T17:24:47.405Z,2.10
2022-10-26T17:27:14.587Z,1.90
2022-10-26T17:29:42.040Z,2.10
2022-10-26T17:32:09.319Z,1.80
2022-10-26T17:34:36.420Z,1.50
2022-10-26T17:37:03.650Z,1.87
2022-10-26T17:39:30.826Z,1.50
2022-10-26T17:41:59.283Z,1.80
2022-10-26T17:44:26.470Z,1.90
2022-10-26T17:46:53.648Z,2.73
2022-10-26T17:49:24.828Z,2.30
2022-10-26T17:51:54.191Z,2.20
2022-10-26T17:54:21.633Z,1.77
2022-10-26T17:56:49.135Z,2.00
2022-10-26T17:59:17.649Z,2.23
2022-10-26T18:01:45.055Z,2.40
2022-10-26T18:04:12.302Z,2.20
2022-10-26T18:06:39.684Z,1.50
2022-10-26T18:09:06.780Z,2.53
2022-10-26T18:11:34.088Z,2.50
2022-10-26T18:14:01.170Z,1.73
2022-10-26T18:16:29.120Z,1.90
2022-10-26T18:19:01.886Z,1.90
2022-10-26T18:21:34.460Z,1.70
2022-10-26T18:24:01.624Z,1.77
2022-10-26T18:26:30.143Z,1.47
2022-10-26T18:28:59.032Z,1.13
2022-10-26T18:31:27.288Z,1.73
2022-10-26T18:33:56.334Z,2.60
2022-10-26T18:36:23.601Z,2.57
2022-10-26T18:38:50.774Z,3.00
2022-10-26T18:41:19.950Z,2.03
2022-10-26T18:43:51.888Z,2.97
2022-10-26T18:46:24.306Z,2.43
2022-10-26T18:48:55.648Z,2.50
2022-10-26T18:51:25.374Z,2.17
2022-10-26T18:53:52.622Z,1.90
2022-10-26T18:56:21.723Z,1.80
2022-10-26T18:58:50.607Z,1.30
2022-10-26T19:01:23.771Z,1.70
2022-10-26T19:04:02.692Z,2.23
2022-10-26T19:06:35.078Z,1.70
2022-10-26T19:09:03.234Z,2.03
2022-10-26T19:11:31.640Z,1.60
2022-10-26T19:13:59.079Z,1.63
2022-10-26T19:19:17.021Z,1.50
2022-10-26T19:21:46.244Z,1.63
2022-10-26T19:24:19.059Z,1.10
2022-10-26T19:26:48.174Z,2.20
2022-10-26T19:29:16.992Z,1.50
2022-10-26T19:31:45.674Z,1.57
2022-10-26T19:34:14.599Z,1.30
2022-10-26T19:36:44.939Z,1.40
2022-10-26T19:39:16.905Z,1.50
2022-10-26T19:41:45.740Z,1.40
2022-10-26T19:44:14.443Z,1.10
2022-10-26T19:46:43.269Z,1.40
2022-10-26T19:49:12.524Z,1.10
2022-10-26T19:51:39.781Z,2.13
2022-10-26T19:54:07.567Z,8.07
2022-10-26T19:56:36.464Z,6.37
2022-10-26T19:59:03.915Z,4.10
2022-10-26T20:01:31.650Z,3.33
2022-10-26T20:03:58.795Z,3.10
2022-10-26T20:06:26.076Z,2.40
2022-10-26T20:08:53.389Z,1.93
2022-10-26T20:11:20.827Z,1.87
2022-10-26T20:13:48.223Z,3.10
2022-10-26T20:16:16.928Z,1.97
2022-10-26T20:18:47.860Z,2.33
2022-10-26T20:21:17.477Z,2.30
2022-10-26T20:23:45.541Z,2.10
2022-10-26T20:26:18.984Z,1.63
2022-10-26T20:28:49.065Z,1.53
2022-10-26T20:31:16.571Z,1.57
2022-10-26T20:33:43.702Z,1.70
2022-10-26T20:36:11.095Z,1.77
2022-10-26T20:38:39.416Z,1.93
2022-10-26T20:41:12.074Z,1.90
2022-10-26T20:43:40.513Z,1.53
2022-10-26T20:46:11.278Z,1.30
2022-10-26T20:48:38.852Z,1.87
2022-10-26T20:51:19.666Z,1.87
2022-10-26T20:53:53.710Z,1.70
2022-10-26T20:56:25.896Z,1.43
2022-10-26T20:58:57.772Z,1.57
2022-10-26T21:01:33.585Z,1.93
2022-10-26T21:04:03.280Z,2.60
2022-10-26T21:06:39.870Z,2.33
2022-10-26T21:09:08.230Z,1.90
2022-10-26T21:11:35.732Z,1.17
2022-10-26T21:14:05.138Z,1.50
2022-10-26T21:16:32.440Z,1.77
2022-10-26T21:19:00.381Z,1.30
2022-10-26T21:21:27.744Z,2.30
2022-10-26T21:23:54.984Z,1.97
2022-10-26T21:26:22.192Z,1.73
2022-10-26T21:28:49.626Z,2.17
2022-10-26T21:31:18.727Z,2.50
2022-10-26T21:33:46.833Z,1.87
2022-10-26T21:36:14.980Z,2.50
2022-10-26T21:38:44.233Z,2.57
2022-10-26T21:41:15.337Z,1.73
2022-10-26T21:43:46.012Z,2.70
2022-10-26T21:46:15.051Z,3.50
2022-10-26T21:48:43.017Z,1.20
2022-10-26T21:51:18.566Z,1.80
2022-10-26T21:53:47.460Z,2.00
2022-10-26T21:56:17.799Z,1.37
2022-10-26T21:58:45.783Z,1.53
2022-10-26T22:01:15.723Z,1.40
2022-10-26T22:03:43.714Z,2.17
2022-10-26T22:06:12.850Z,2.27
2022-10-26T22:08:40.371Z,1.60
2022-10-26T22:11:16.347Z,1.37
2022-10-26T22:13:44.650Z,1.63
2022-10-26T22:16:19.527Z,1.53
2022-10-26T22:18:47.975Z,1.57
2022-10-26T22:21:16.655Z,1.77
2022-10-26T22:23:44.008Z,2.00
2022-10-26T22:26:17.162Z,1.40
2022-10-26T22:28:45.793Z,2.33
2022-10-26T22:31:19.259Z,1.70
2022-10-26T22:33:50.788Z,1.20
2022-10-26T22:36:18.044Z,1.20
2022-10-26T22:38:45.453Z,1.23
2022-10-26T22:41:12.873Z,1.80
2022-10-26T22:43:40.042Z,1.50
2022-10-26T22:46:15.699Z,1.50
2022-10-26T22:48:45.441Z,1.60
2022-10-26T22:51:19.803Z,1.17
2022-10-26T22:53:50.999Z,1.30
2022-10-26T22:56:18.158Z,1.30
2022-10-26T22:58:45.321Z,1.37
2022-10-26T23:01:17.800Z,1.20
2022-10-26T23:03:45.440Z,1.10
2022-10-26T23:06:15.238Z,1.20
2022-10-26T23:08:43.064Z,2.10
2022-10-26T23:11:13.342Z,1.70
2022-10-26T23:13:40.779Z,1.13
2022-10-26T23:16:17.940Z,1.33
2022-10-26T23:18:45.404Z,1.60
2022-10-26T23:21:13.666Z,0.90
2022-10-26T23:23:41.568Z,1.30
2022-10-26T23:26:14.556Z,1.20
2022-10-26T23:28:42.643Z,1.57
2022-10-26T23:31:16.285Z,1.70
2022-10-26T23:33:44.156Z,1.03
2022-10-26T23:36:11.486Z,1.20
2022-10-26T23:38:38.676Z,1.60
2022-10-26T23:41:08.225Z,1.27
2022-10-26T23:43:37.978Z,1.20
2022-10-26T23:46:05.589Z,1.13
2022-10-26T23:48:32.750Z,1.83
2022-10-26T23:50:59.901Z,1.10
2022-10-26T23:53:27.185Z,1.00
2022-10-26T23:55:54.431Z,2.30
2022-10-26T23:58:21.726Z,0.93
